x

La Perouse Bank (46206) Wave Buoy

5:00 - Mon 26th Jan 2015 All times are PST. -8 hours from GMT.

  • Sig Wave height 8.5ft
  • Peak Period 14s
  • Wind
    13mph, 18mph gusts
  • Sea Temp 52°f
  • Luft Temp 50°f
  • Sea Pressure 1011.9mb
  • La Perouse Bank
  • La Perouse Bank

More Historic Weather Station data

Upgrade to MSW Pro to gain access to the past 30 days of data for over 8000 Wavebouys and Weather Stations around the globe.

Join Pro

Comparision Forecast

View Surf forecast
   
Mo 01/26 5:00 8.5ft 14s 13 18 mph 1011.9mb 52f 50f
4:00  -   -  18
mph
- - 51f
3:00 8.5ft 14s 11 16 mph 1012.3mb 52f 51f
2:00 8ft 13s 16 20 mph 1012.2mb 51f 51f
1:00 8ft 11s 18 22 mph 1012.2mb 51f 52f
12:00 8ft 11s 22 27 mph 1011.4mb 51f 51f
11:00 7.5ft 11s 25 31 mph 1011mb 51f 51f
10:00 8ft 12s 22 29 mph 1010.9mb 51f 52f
9:00 8ft 14s 22 27 mph 1010.9mb 51f 52f
8:00 8ft 12s 22 29 mph 1010.4mb 51f 52f
7:00 9ft 12s 20 27 mph 1010.4mb 51f 51f
6:00 8ft 13s 22 29 mph 1010.4mb 51f 52f
5:00 8.5ft 12s 18 22 mph 1011.1mb 51f 52f
4:00 8.5ft 11s 16 18 mph 1011.8mb 51f 51f
3:00 9ft 14s 11 13 mph 1012.4mb 51f 51f
2:00 8.5ft 14s 13 16 mph 1013mb 52f 51f
1:00 8ft 15s 16 20 mph 1013.2mb 51f 51f
12:00 8ft 11s 18 22 mph 1013.7mb 51f 52f
So 01/25 11:00 8.5ft 12s 16 20 mph 1014.2mb 52f 52f
10:00 8ft 11s 18 22 mph 1014.2mb 51f 52f
9:00 9ft 14s 18 22 mph 1015mb 52f 52f
8:00 9ft 12s 20 22 mph 1015.5mb 52f 52f
7:00 9.5ft 12s 18 25 mph 1016.2mb 52f 52f
6:00 9ft 12s 16 22 mph 1016.8mb 51f 52f
5:00 10ft 12s 16 20 mph 1017mb 51f 52f
4:00 11ft 11s 13 18 mph 1017.6mb 51f 51f
3:00 11ft 14s 13 18 mph 1018.2mb 51f 51f
2:00 10ft 14s 13 18 mph 1018.5mb 51f 51f
1:00 10.5ft 13s 13 18 mph 1019.8mb 51f 51f
12:00 10.5ft 14s 13 18 mph 1020.4mb 51f 51f
11:00 10ft 14s 11 16 mph 1021.4mb 51f 51f
10:00 9ft 12s 13 18 mph 1021mb 51f 52f
9:00 10ft 15s 13 16 mph 1020.7mb 51f 52f
8:00 10ft 12s 9 11 mph 1020.4mb 51f 52f
7:00 10ft 12s 13 16 mph 1020.3mb 51f 52f
6:00 9.5ft 10s 13 16 mph 1020.2mb 51f 52f
5:00 11ft 11s 13 16 mph 1020.6mb 51f 52f
4:00 10.5ft 10s 13 16 mph 1021.1mb 51f 52f
3:00 10ft 14s 13 16 mph 1021.7mb 51f 52f
2:00 10ft 12s 13 16 mph 1021.8mb 51f 52f
1:00 10ft 14s 16 18 mph 1021.3mb 51f 52f
12:00 9.5ft 12s 16 18 mph 1021.5mb 51f 52f
Sa 01/24 11:00 10ft 12s 16 20 mph 1021.4mb 51f 52f
10:00 10ft 12s 16 18 mph 1021.8mb 51f 52f
9:00 10.5ft 13s 13 16 mph 1021.5mb 51f 52f
8:00 11ft 13s 13 18 mph 1021.7mb 51f 52f
6:00 11ft 14s 13 18 mph 1021.7mb 51f 52f
5:00 11ft 14s 16 18 mph 1021.2mb 51f 52f
4:00 10ft 14s 13 18 mph 1021.7mb 51f 52f
3:00 10ft 15s 13 18 mph 1021.6mb 51f 52f
2:00 11ft 14s 16 18 mph 1021.6mb 51f 52f
1:00 11.5ft 15s 13 16 mph 1021.9mb 51f 52f
12:00 10.5ft 13s 13 16 mph 1022.6mb 51f 52f
11:00 10.5ft 12s 16 18 mph 1023.1mb 51f 52f
10:00 10.5ft 14s 16 18 mph 1022.8mb 51f 52f
9:00 10.5ft 14s 13 18 mph 1022.7mb 51f 52f
8:00 11ft 14s 11 16 mph 1023.1mb 51f 51f
7:00 12ft 15s 11 13 mph 1023.6mb 51f 51f
6:00 13ft 15s 7 9 mph 1023.8mb 51f 51f
5:00 11ft 14s 9 13 mph 1023.1mb 51f 51f
4:00 12ft 14s 4 9 mph 1024mb 51f 51f
3:00 12ft 14s 4 7 mph 1024.4mb 51f 51f
2:00 11.5ft 14s 4 7 mph 1024.4mb 51f 51f
1:00 11ft 15s 7 9 mph 1024.5mb 51f 52f
12:00 11.5ft 14s 7 9 mph 1023.8mb 51f 52f
Fr 01/23 11:00 12.5ft 15s 7 9 mph 1023.7mb 51f 52f
10:00 12ft 16s 9 11 mph 1023.1mb 51f 52f
9:00 12ft 16s 13 16 mph 1022.5mb 51f 52f
8:00 13ft 17s 13 18 mph 1022.2mb 52f 52f
7:00 13.5ft 16s 16 20 mph 1021.7mb 52f 53f
6:00 13.5ft 16s 22 27 mph 1021.1mb 51f 53f
5:00 13ft 17s 22 27 mph 1019.9mb 51f 53f
4:00 14ft 16s 25 29 mph 1019.4mb 51f 53f
3:00 13ft 17s 20 27 mph 1019.5mb 51f 53f
2:00 13ft 16s 18 20 mph 1019.9mb 52f 53f
1:00 12ft 12s 13 20 mph 1020.3mb 52f 53f
12:00 12.5ft 17s 18 22 mph 1020.5mb 51f 53f
11:00 11.5ft 10s 20 27 mph 1020.7mb 51f 53f
10:00 12ft 17s 20 25 mph 1020.7mb 51f 53f
9:00 11.5ft 17s 20 25 mph 1020.7mb 51f 53f
8:00 11ft 12s 22 27 mph 1021mb 51f 52f
7:00 11.5ft 18s 22 27 mph 1020.8mb 51f 53f
6:00 11ft 12s 25 29 mph 1021.3mb 51f 52f
5:00 10.5ft 12s 22 27 mph 1022mb 51f 52f
4:00 12ft 11s 22 27 mph 1022.8mb 51f 52f
3:00  -   -  20
mph
1023.4mb 51f 52f